createdAt,value
2023-05-10T00:00:14.480Z,52.11
2023-05-10T00:02:42.384Z,51.87
2023-05-10T00:05:11.331Z,51.74
2023-05-10T00:07:38.934Z,52.16
2023-05-10T00:10:07.557Z,51.92
2023-05-10T00:12:35.024Z,51.86
2023-05-10T00:15:03.889Z,51.87
2023-05-10T00:17:31.927Z,51.77
2023-05-10T00:19:59.650Z,51.78
2023-05-10T00:22:27.078Z,51.33
2023-05-10T00:24:54.874Z,51.04
2023-05-10T00:27:22.869Z,51.50
2023-05-10T00:29:50.155Z,51.67
2023-05-10T00:32:18.946Z,52.17
2023-05-10T00:34:46.433Z,52.03
2023-05-10T00:37:13.846Z,51.63
2023-05-10T00:39:43.235Z,52.57
2023-05-10T00:42:10.761Z,52.51
2023-05-10T00:44:38.038Z,53.11
2023-05-10T00:47:06.763Z,53.92
2023-05-10T00:49:34.665Z,52.61
2023-05-10T00:52:06.174Z,52.35
2023-05-10T00:54:33.960Z,53.24
2023-05-10T00:57:04.268Z,53.54
2023-05-10T00:59:32.587Z,53.64
2023-05-10T01:01:59.821Z,53.39
2023-05-10T01:04:27.703Z,53.18
2023-05-10T01:06:55.298Z,52.87
2023-05-10T01:09:22.705Z,52.91
2023-05-10T01:11:50.679Z,52.88
2023-05-10T01:14:18.896Z,52.84
2023-05-10T01:16:46.687Z,52.77
2023-05-10T01:19:18.368Z,52.89
2023-05-10T01:22:04.950Z,52.54
2023-05-10T01:24:56.482Z,52.90
2023-05-10T01:27:42.992Z,53.60
2023-05-10T01:30:29.460Z,53.51
2023-05-10T01:33:09.599Z,53.88
2023-05-10T01:35:44.451Z,54.10
2023-05-10T01:38:12.230Z,54.26
2023-05-10T01:40:41.517Z,54.14
2023-05-10T01:43:09.616Z,54.43
2023-05-10T01:45:43.259Z,54.06
2023-05-10T01:48:17.052Z,53.98
2023-05-10T01:50:45.094Z,54.21
2023-05-10T01:53:12.958Z,54.00
2023-05-10T01:55:41.337Z,54.18
2023-05-10T01:58:10.110Z,54.37
2023-05-10T02:00:37.595Z,54.63
2023-05-10T02:03:07.730Z,54.62
2023-05-10T02:05:35.180Z,54.31
2023-05-10T02:08:02.860Z,54.22
2023-05-10T02:10:30.799Z,54.65
2023-05-10T02:12:59.775Z,55.19
2023-05-10T02:15:27.513Z,54.63
2023-05-10T02:17:57.128Z,54.61
2023-05-10T02:20:24.641Z,54.77
2023-05-10T02:22:52.849Z,54.99
2023-05-10T02:25:21.183Z,55.23
2023-05-10T02:27:48.862Z,55.19
2023-05-10T02:30:16.596Z,55.89
2023-05-10T02:32:44.318Z,56.32
2023-05-10T02:35:12.278Z,56.13
2023-05-10T02:37:40.383Z,56.27
2023-05-10T02:40:09.104Z,56.77
2023-05-10T02:42:38.656Z,56.86
2023-05-10T02:45:12.285Z,56.72
2023-05-10T02:47:40.099Z,56.42
2023-05-10T02:50:09.270Z,56.17
2023-05-10T02:53:04.509Z,56.36
2023-05-10T02:55:34.234Z,56.21
2023-05-10T02:58:02.480Z,56.16
2023-05-10T03:00:30.363Z,55.89
2023-05-10T03:02:58.349Z,56.22
2023-05-10T03:05:27.045Z,55.97
2023-05-10T03:07:56.663Z,55.29
2023-05-10T03:10:26.471Z,55.50
2023-05-10T03:13:05.021Z,55.70
2023-05-10T03:15:45.478Z,55.54
2023-05-10T03:18:31.957Z,55.03
2023-05-10T03:21:02.055Z,55.34
2023-05-10T03:23:50.212Z,55.27
2023-05-10T03:26:21.693Z,54.72
2023-05-10T03:28:53.786Z,55.03
2023-05-10T03:31:22.389Z,55.17
2023-05-10T03:33:53.177Z,54.95
2023-05-10T03:36:22.464Z,54.71
2023-05-10T03:38:50.750Z,55.23
2023-05-10T03:41:18.356Z,55.23
2023-05-10T03:43:45.959Z,54.49
2023-05-10T03:46:14.066Z,54.31
2023-05-10T03:48:41.863Z,54.61
2023-05-10T03:51:10.560Z,54.29
2023-05-10T03:53:39.103Z,55.10
2023-05-10T03:56:06.364Z,54.96
2023-05-10T03:58:34.238Z,55.42
2023-05-10T04:01:02.049Z,55.47
2023-05-10T04:03:32.681Z,55.99
2023-05-10T04:06:03.532Z,55.11
2023-05-10T04:08:31.711Z,54.91
2023-05-10T04:11:09.222Z,55.28
2023-05-10T04:13:37.448Z,55.43
2023-05-10T04:16:05.524Z,55.54
2023-05-10T04:18:44.216Z,55.10
2023-05-10T04:21:17.165Z,55.17
2023-05-10T04:23:45.662Z,54.35
2023-05-10T04:26:13.986Z,54.60
2023-05-10T04:28:41.510Z,54.45
2023-05-10T04:31:17.108Z,54.20
2023-05-10T04:33:49.362Z,53.82
2023-05-10T04:36:17.983Z,53.94
2023-05-10T04:38:46.312Z,54.23
2023-05-10T04:41:14.137Z,55.17
2023-05-10T04:43:41.981Z,54.85
2023-05-10T04:46:10.838Z,53.66
2023-05-10T04:48:39.237Z,53.24
2023-05-10T04:51:08.322Z,53.74
2023-05-10T04:53:36.902Z,52.88
2023-05-10T04:56:08.571Z,52.96
2023-05-10T04:58:37.307Z,52.55
2023-05-10T05:01:09.514Z,52.76
2023-05-10T05:03:39.702Z,52.25
2023-05-10T05:06:07.798Z,52.29
2023-05-10T05:08:38.093Z,52.38
2023-05-10T05:11:06.237Z,51.64
2023-05-10T05:13:34.473Z,51.32
2023-05-10T05:16:04.098Z,51.58
2023-05-10T05:18:37.000Z,52.11
2023-05-10T05:21:05.443Z,52.45
2023-05-10T05:23:34.926Z,51.50
2023-05-10T05:26:02.887Z,51.74
2023-05-10T05:28:33.934Z,52.02
2023-05-10T05:31:05.920Z,52.57
2023-05-10T05:33:36.262Z,51.67
2023-05-10T05:36:08.541Z,51.79
2023-05-10T05:38:37.818Z,51.33
2023-05-10T05:41:07.583Z,51.22
2023-05-10T05:43:38.471Z,51.29
2023-05-10T05:46:06.605Z,51.02
2023-05-10T05:48:34.384Z,51.29
2023-05-10T05:51:02.833Z,51.44
2023-05-10T05:53:30.987Z,50.18
2023-05-10T05:55:59.785Z,49.79
2023-05-10T05:58:29.164Z,52.04
2023-05-10T06:00:57.877Z,50.95
2023-05-10T06:03:33.760Z,49.81
2023-05-10T06:06:05.793Z,50.68
2023-05-10T06:08:35.089Z,49.82
2023-05-10T06:11:05.220Z,48.96
2023-05-10T06:13:37.628Z,47.79
2023-05-10T06:16:06.816Z,48.30
2023-05-10T06:18:35.140Z,48.94
2023-05-10T06:21:07.760Z,47.62
2023-05-10T06:23:37.868Z,47.45
2023-05-10T06:26:09.444Z,47.43
2023-05-10T06:28:41.164Z,49.54
2023-05-10T06:31:09.491Z,48.13
2023-05-10T06:33:38.028Z,47.36
2023-05-10T06:36:05.691Z,47.64
2023-05-10T06:38:34.776Z,47.48
2023-05-10T06:41:11.552Z,46.45
2023-05-10T06:43:42.533Z,45.91
2023-05-10T06:46:11.721Z,46.93
2023-05-10T06:48:45.127Z,46.19
2023-05-10T06:51:13.124Z,46.15
2023-05-10T06:53:44.324Z,46.77
2023-05-10T06:56:18.105Z,47.26
2023-05-10T06:58:46.249Z,47.59
2023-05-10T07:01:19.304Z,46.14
2023-05-10T07:03:47.549Z,46.38
2023-05-10T07:06:29.465Z,45.42
2023-05-10T07:09:02.461Z,44.71
2023-05-10T07:11:30.678Z,44.79
2023-05-10T07:14:00.805Z,44.60
2023-05-10T07:16:29.110Z,45.01
2023-05-10T07:18:58.613Z,45.33
2023-05-10T07:21:31.153Z,44.89
2023-05-10T07:24:02.117Z,44.04
2023-05-10T07:26:30.772Z,44.71
2023-05-10T07:28:58.686Z,45.23
2023-05-10T07:31:26.090Z,45.79
2023-05-10T07:33:54.500Z,45.51
2023-05-10T07:36:22.164Z,45.13
2023-05-10T07:38:51.418Z,44.18
2023-05-10T07:41:19.066Z,44.60
2023-05-10T07:43:47.921Z,44.21
2023-05-10T07:46:15.886Z,44.91
2023-05-10T07:48:43.864Z,42.54
2023-05-10T07:51:13.753Z,44.07
2023-05-10T07:53:43.626Z,43.47
2023-05-10T07:58:55.056Z,44.15
2023-05-10T08:01:23.444Z,43.44
2023-05-10T08:03:54.662Z,42.52
2023-05-10T08:06:23.401Z,43.19
2023-05-10T08:08:51.763Z,43.10
2023-05-10T08:11:19.746Z,43.96
2023-05-10T08:13:47.807Z,43.83
2023-05-10T08:16:19.532Z,43.93
2023-05-10T08:18:48.109Z,44.00
2023-05-10T08:21:16.754Z,43.28
2023-05-10T08:23:45.378Z,42.79
2023-05-10T08:26:13.220Z,42.59
2023-05-10T08:28:41.472Z,43.03
2023-05-10T08:31:10.138Z,43.35
2023-05-10T08:33:38.961Z,42.87
2023-05-10T08:36:11.132Z,42.66
2023-05-10T08:38:39.062Z,42.35
2023-05-10T08:41:07.310Z,41.84
2023-05-10T08:43:37.164Z,42.15
2023-05-10T08:46:07.114Z,42.33
2023-05-10T08:48:36.648Z,41.48
2023-05-10T08:51:04.798Z,41.09
2023-05-10T08:53:35.033Z,42.40
2023-05-10T08:56:04.410Z,41.20
2023-05-10T08:58:35.452Z,39.87
2023-05-10T09:01:07.155Z,38.84
2023-05-10T09:03:39.166Z,40.20
2023-05-10T09:06:09.249Z,39.03
2023-05-10T09:08:47.246Z,38.53
2023-05-10T09:11:16.252Z,37.67
2023-05-10T09:13:44.969Z,37.93
2023-05-10T09:16:21.292Z,39.57
2023-05-10T09:19:03.284Z,38.07
2023-05-10T09:21:34.193Z,38.00
2023-05-10T09:24:06.827Z,37.93
2023-05-10T09:26:37.050Z,36.64
2023-05-10T09:29:09.518Z,37.17
2023-05-10T09:31:55.611Z,38.76
2023-05-10T09:34:31.448Z,39.77
2023-05-10T09:37:06.112Z,38.12
2023-05-10T09:39:34.631Z,40.21
2023-05-10T09:42:04.990Z,38.75
2023-05-10T09:44:36.348Z,37.68
2023-05-10T09:47:06.115Z,36.66
2023-05-10T09:49:36.145Z,37.32
2023-05-10T09:52:08.192Z,37.59
2023-05-10T09:54:43.295Z,38.47
2023-05-10T09:57:22.904Z,37.37
2023-05-10T09:59:52.140Z,36.97
2023-05-10T10:02:22.790Z,37.21
2023-05-10T10:04:55.414Z,38.10
2023-05-10T10:07:27.158Z,37.38
2023-05-10T10:09:56.166Z,36.75
2023-05-10T10:12:24.413Z,36.04
2023-05-10T10:14:55.741Z,37.07
2023-05-10T10:17:27.147Z,37.70
2023-05-10T10:19:56.525Z,37.58
2023-05-10T10:22:25.511Z,37.03
2023-05-10T10:24:53.569Z,37.37
2023-05-10T10:27:38.167Z,36.35
2023-05-10T10:30:17.701Z,37.89
2023-05-10T10:33:13.213Z,37.47
2023-05-10T10:35:51.300Z,36.87
2023-05-10T10:38:25.070Z,38.08
2023-05-10T10:41:15.357Z,37.37
2023-05-10T10:43:46.501Z,38.33
2023-05-10T10:46:20.183Z,37.87
2023-05-10T10:48:49.091Z,37.38
2023-05-10T10:51:17.676Z,36.24
2023-05-10T10:53:45.758Z,36.84
2023-05-10T10:56:16.405Z,36.58
2023-05-10T10:58:57.243Z,36.96
2023-05-10T11:01:42.166Z,36.16
2023-05-10T11:04:09.996Z,35.91
2023-05-10T11:06:38.698Z,35.70
2023-05-10T11:09:07.085Z,35.97
2023-05-10T11:11:37.532Z,34.79
2023-05-10T11:14:08.199Z,35.86
2023-05-10T11:16:43.979Z,35.89
2023-05-10T11:19:13.201Z,35.70
2023-05-10T11:22:00.383Z,34.65
2023-05-10T11:24:29.225Z,35.22
2023-05-10T11:26:58.204Z,35.27
2023-05-10T11:29:27.285Z,34.93
2023-05-10T11:31:57.832Z,36.08
2023-05-10T11:34:29.436Z,36.85
2023-05-10T11:37:00.165Z,37.37
2023-05-10T11:39:29.572Z,35.15
2023-05-10T11:41:58.669Z,35.70
2023-05-10T11:44:32.492Z,35.14
2023-05-10T11:47:01.664Z,34.96
2023-05-10T11:49:30.869Z,34.99
2023-05-10T11:52:13.543Z,35.33
2023-05-10T11:54:55.167Z,35.94
2023-05-10T11:57:33.503Z,35.88
2023-05-10T12:00:04.916Z,35.52
2023-05-10T12:02:35.580Z,34.91
2023-05-10T12:05:09.718Z,35.32
2023-05-10T12:07:37.700Z,36.78
2023-05-10T12:10:10.047Z,36.57
2023-05-10T12:12:46.228Z,36.09
2023-05-10T12:15:23.646Z,34.32
2023-05-10T12:17:59.460Z,35.67
2023-05-10T12:20:28.712Z,35.45
2023-05-10T12:23:00.311Z,34.54
2023-05-10T12:25:33.722Z,34.37
2023-05-10T12:28:04.590Z,33.82
2023-05-10T12:30:34.075Z,33.93
2023-05-10T12:33:17.217Z,34.81
2023-05-10T12:35:50.508Z,34.35
2023-05-10T12:38:51.093Z,33.13
2023-05-10T12:41:20.080Z,33.47
2023-05-10T12:43:50.135Z,33.79
2023-05-10T12:46:24.266Z,35.17
2023-05-10T12:49:07.673Z,35.64
2023-05-10T12:51:35.992Z,34.58
2023-05-10T12:54:08.200Z,34.67
2023-05-10T12:56:38.684Z,35.03
2023-05-10T12:59:08.124Z,34.77
2023-05-10T13:01:39.046Z,34.44
2023-05-10T13:04:07.067Z,34.81
2023-05-10T13:06:36.027Z,34.25
2023-05-10T13:09:06.108Z,34.82
2023-05-10T13:11:35.627Z,34.03
2023-05-10T13:14:04.922Z,34.50
2023-05-10T13:16:39.205Z,33.17
2023-05-10T13:19:19.335Z,33.61
2023-05-10T13:21:48.671Z,34.30
2023-05-10T13:24:16.844Z,34.19
2023-05-10T13:26:48.712Z,32.65
2023-05-10T13:29:19.245Z,32.83
2023-05-10T13:31:48.432Z,33.93
2023-05-10T13:34:21.762Z,33.51
2023-05-10T13:36:50.054Z,32.25
2023-05-10T13:39:27.844Z,33.11
2023-05-10T13:41:57.162Z,34.21
2023-05-10T13:44:32.403Z,32.21
2023-05-10T13:47:06.137Z,33.03
2023-05-10T13:49:35.641Z,33.42
2023-05-10T13:52:07.837Z,32.77
2023-05-10T13:54:40.122Z,32.15
2023-05-10T13:57:09.604Z,31.70
2023-05-10T13:59:43.092Z,32.38
2023-05-10T14:02:18.611Z,31.78
2023-05-10T14:05:10.488Z,31.26
2023-05-10T14:10:47.695Z,31.82
2023-05-10T14:13:23.568Z,31.53
2023-05-10T14:16:14.621Z,30.94
2023-05-10T14:18:48.279Z,29.66
2023-05-10T14:21:16.585Z,28.82
2023-05-10T14:23:46.224Z,28.61
2023-05-10T14:26:17.575Z,29.25
2023-05-10T14:28:45.952Z,29.53
2023-05-10T14:31:15.488Z,29.36
2023-05-10T14:33:45.166Z,29.15
2023-05-10T14:36:14.519Z,28.76
2023-05-10T14:38:45.085Z,28.90
2023-05-10T14:41:18.919Z,28.86
2023-05-10T14:43:47.315Z,28.41
2023-05-10T14:48:56.405Z,28.18
2023-05-10T14:51:26.485Z,28.17
2023-05-10T14:54:01.774Z,28.28
2023-05-10T14:56:39.177Z,28.90
2023-05-10T14:59:16.397Z,29.61
2023-05-10T15:01:47.282Z,28.79
2023-05-10T15:04:20.123Z,28.84
2023-05-10T15:06:55.335Z,29.14
2023-05-10T15:09:28.804Z,28.69
2023-05-10T15:12:05.096Z,28.67
2023-05-10T15:14:37.185Z,29.03
2023-05-10T15:17:11.216Z,29.19
2023-05-10T15:19:39.286Z,29.76
2023-05-10T15:22:13.210Z,29.83
2023-05-10T15:24:41.942Z,30.20
2023-05-10T15:27:16.006Z,29.99
2023-05-10T15:29:47.276Z,31.27
2023-05-10T15:32:16.547Z,31.00
2023-05-10T15:34:53.168Z,31.35
2023-05-10T15:37:23.126Z,32.64
2023-05-10T15:40:04.982Z,31.72
2023-05-10T15:42:39.234Z,31.22
2023-05-10T15:45:08.117Z,31.47
2023-05-10T15:47:35.969Z,31.43
2023-05-10T15:50:04.802Z,31.22
2023-05-10T15:52:34.303Z,30.72
2023-05-10T15:55:05.122Z,31.54
2023-05-10T15:57:36.941Z,31.17
2023-05-10T16:00:06.196Z,31.05
2023-05-10T16:02:41.914Z,31.23
2023-05-10T16:05:15.871Z,31.13
2023-05-10T16:07:44.720Z,30.91
2023-05-10T16:10:17.382Z,31.01
2023-05-10T16:12:52.452Z,30.94
2023-05-10T16:15:27.846Z,31.59
2023-05-10T16:18:03.593Z,31.79
2023-05-10T16:20:33.289Z,31.37
2023-05-10T16:23:15.315Z,31.98
2023-05-10T16:25:46.473Z,30.66
2023-05-10T16:30:50.763Z,29.71
2023-05-10T16:33:23.452Z,31.30
2023-05-10T16:35:53.415Z,31.07
2023-05-10T16:38:34.306Z,30.91
2023-05-10T16:41:12.243Z,31.79
2023-05-10T16:43:40.631Z,31.12
2023-05-10T16:46:17.909Z,31.00
2023-05-10T16:48:50.218Z,30.75
2023-05-10T16:51:24.438Z,31.18
2023-05-10T16:53:56.265Z,30.87
2023-05-10T16:56:28.424Z,30.86
2023-05-10T16:58:56.753Z,31.38
2023-05-10T17:01:34.187Z,31.44
2023-05-10T17:04:10.306Z,31.14
2023-05-10T17:06:48.261Z,31.02
2023-05-10T17:09:30.311Z,30.74
2023-05-10T17:12:00.206Z,31.34
2023-05-10T17:14:33.228Z,32.30
2023-05-10T17:17:04.302Z,32.82
2023-05-10T17:19:32.459Z,33.19
2023-05-10T17:22:13.495Z,33.48
2023-05-10T17:24:47.399Z,32.86
2023-05-10T17:27:24.344Z,33.28
2023-05-10T17:29:58.701Z,33.64
2023-05-10T17:32:30.727Z,33.84
2023-05-10T17:34:59.386Z,34.64
2023-05-10T17:40:07.286Z,35.44
2023-05-10T17:42:41.205Z,35.01
2023-05-10T17:45:16.728Z,35.14
2023-05-10T17:47:47.591Z,34.71
2023-05-10T17:50:21.322Z,35.32
2023-05-10T17:55:27.187Z,35.63
2023-05-10T17:58:02.947Z,35.73
2023-05-10T18:00:40.315Z,35.58
2023-05-10T18:03:09.572Z,35.72
2023-05-10T18:05:41.220Z,36.11
2023-05-10T18:08:14.418Z,35.21
2023-05-10T18:10:47.296Z,35.72
2023-05-10T18:13:18.215Z,35.96
2023-05-10T18:15:48.469Z,36.21
2023-05-10T18:18:17.128Z,36.34
2023-05-10T18:20:47.215Z,36.07
2023-05-10T18:25:55.647Z,36.36
2023-05-10T18:28:25.291Z,36.37
2023-05-10T18:30:57.560Z,36.48
2023-05-10T18:33:29.731Z,36.75
2023-05-10T18:36:07.444Z,37.13
2023-05-10T18:38:40.290Z,36.75
2023-05-10T18:41:18.304Z,37.88
2023-05-10T18:46:36.881Z,37.42
2023-05-10T18:49:08.645Z,37.30
2023-05-10T18:51:41.559Z,36.69
2023-05-10T18:54:10.804Z,36.71
2023-05-10T18:56:48.338Z,37.08
2023-05-10T18:59:22.293Z,36.89
2023-05-10T19:01:54.242Z,37.22
2023-05-10T19:04:29.502Z,36.79
2023-05-10T19:07:02.264Z,36.35
2023-05-10T19:09:40.334Z,36.79
2023-05-10T19:12:09.380Z,36.93
2023-05-10T19:14:43.603Z,36.41
2023-05-10T19:17:20.120Z,36.30
2023-05-10T19:19:57.423Z,36.56
2023-05-10T19:22:54.305Z,36.52
2023-05-10T19:25:33.602Z,36.54
2023-05-10T19:28:05.775Z,36.75
2023-05-10T19:30:36.218Z,36.63
2023-05-10T19:35:53.319Z,36.38
2023-05-10T19:38:23.504Z,36.47
2023-05-10T19:41:01.249Z,36.97
2023-05-10T19:43:33.935Z,36.52
2023-05-10T19:46:03.553Z,37.14
2023-05-10T19:48:34.436Z,37.11
2023-05-10T19:51:06.855Z,36.58
2023-05-10T19:53:46.102Z,36.83
2023-05-10T19:56:27.176Z,36.71
2023-05-10T19:58:55.287Z,37.13
2023-05-10T20:01:25.336Z,36.70
2023-05-10T20:03:55.323Z,36.82
2023-05-10T20:06:23.204Z,37.22
2023-05-10T20:11:23.597Z,37.24
2023-05-10T20:13:57.422Z,37.12
2023-05-10T20:16:27.095Z,37.09
2023-05-10T20:18:56.500Z,37.04
2023-05-10T20:21:27.343Z,37.74
2023-05-10T20:23:55.449Z,37.82
2023-05-10T20:26:29.409Z,37.73
2023-05-10T20:29:06.892Z,38.00
2023-05-10T20:31:35.530Z,38.63
2023-05-10T20:34:05.632Z,39.13
2023-05-10T20:36:40.260Z,39.82
2023-05-10T20:39:10.189Z,39.81
2023-05-10T20:41:39.508Z,39.92
2023-05-10T20:44:07.232Z,40.56
2023-05-10T20:46:44.588Z,40.42
2023-05-10T20:49:20.104Z,40.13
2023-05-10T20:54:24.485Z,40.69
2023-05-10T20:56:53.149Z,40.89
2023-05-10T20:59:22.008Z,41.10
2023-05-10T21:01:50.180Z,42.16
2023-05-10T21:04:18.724Z,42.09
2023-05-10T21:06:48.160Z,41.93
2023-05-10T21:09:17.802Z,41.55
2023-05-10T21:11:46.030Z,41.73
2023-05-10T21:14:14.616Z,41.52
2023-05-10T21:16:42.481Z,41.15
2023-05-10T21:19:09.993Z,42.38
2023-05-10T21:21:37.389Z,42.22
2023-05-10T21:24:08.377Z,42.29
2023-05-10T21:26:43.204Z,42.55
2023-05-10T21:29:11.356Z,42.66
2023-05-10T21:31:39.397Z,42.56
2023-05-10T21:34:07.067Z,41.75
2023-05-10T21:36:36.959Z,42.39
2023-05-10T21:39:05.629Z,42.17
2023-05-10T21:41:33.397Z,41.94
2023-05-10T21:44:01.693Z,42.20
2023-05-10T21:46:30.458Z,42.35
2023-05-10T21:48:59.474Z,42.57
2023-05-10T21:51:29.341Z,42.64
2023-05-10T21:53:57.284Z,42.98
2023-05-10T21:56:24.965Z,42.82
2023-05-10T21:58:56.628Z,43.45
2023-05-10T22:01:24.141Z,43.15
2023-05-10T22:03:51.959Z,43.37
2023-05-10T22:06:26.084Z,42.79
2023-05-10T22:08:54.117Z,41.54
2023-05-10T22:11:23.302Z,41.76
2023-05-10T22:13:52.323Z,41.62
2023-05-10T22:16:22.736Z,41.48
2023-05-10T22:18:51.050Z,40.60
2023-05-10T22:21:18.694Z,40.24
2023-05-10T22:23:46.584Z,40.18
2023-05-10T22:26:13.829Z,40.41
2023-05-10T22:28:43.152Z,40.62
2023-05-10T22:31:12.399Z,39.92
2023-05-10T22:33:40.312Z,39.26
2023-05-10T22:36:08.362Z,38.98
2023-05-10T22:38:36.553Z,38.60
2023-05-10T22:41:05.244Z,38.66
2023-05-10T22:43:33.652Z,39.20
2023-05-10T22:46:02.230Z,39.25
2023-05-10T22:48:31.624Z,38.63
2023-05-10T22:51:00.137Z,38.79
2023-05-10T22:53:27.948Z,38.59
2023-05-10T22:55:55.398Z,38.70
2023-05-10T22:58:33.294Z,38.70
2023-05-10T23:01:00.823Z,38.36
2023-05-10T23:03:36.505Z,38.72
2023-05-10T23:06:07.843Z,39.25
2023-05-10T23:08:35.439Z,39.10
2023-05-10T23:11:05.256Z,39.14
2023-05-10T23:13:33.521Z,38.92
2023-05-10T23:16:07.574Z,39.92
2023-05-10T23:18:35.552Z,40.08
2023-05-10T23:21:03.089Z,39.86
2023-05-10T23:23:34.033Z,39.63
2023-05-10T23:26:02.903Z,39.69
2023-05-10T23:28:32.369Z,39.81
2023-05-10T23:30:59.615Z,39.81
2023-05-10T23:33:34.369Z,40.23
2023-05-10T23:36:02.530Z,40.04
2023-05-10T23:38:33.461Z,40.73
2023-05-10T23:41:01.048Z,40.86
2023-05-10T23:43:32.406Z,41.41
2023-05-10T23:46:01.669Z,41.53
2023-05-10T23:48:32.528Z,41.50
2023-05-10T23:50:59.833Z,42.03
2023-05-10T23:53:34.589Z,42.49
2023-05-10T23:56:02.453Z,42.89
2023-05-10T23:58:31.683Z,43.15
